Terminal Aerodrome Forecast
Issued by NWS

Home | Current Version | Previous Version | Graphics & Text | Print | Product List | Glossary On
Versions: 1 2 3 4 5 6 7 8 9 10 11 12 13 14 15 16 17 18 19 20 21 22 23 24 25 26
563
FTUS45 KGGW 201723
TAFOLF
TAF
KOLF 201723Z 2018/2118 30025G35KT P6SM BKN120
     FM202200 32015G25KT P6SM SCT080
     FM210000 32012G23KT P6SM BKN100
     FM210900 33009KT P6SM FEW200
     FM211500 29005KT P6SM SKC=

USA.gov is the U.S. government's official web portal to all federal, state and local government web resources and services.